createdAt,value
2019-04-20T00:01:12.606Z,8.25
2019-04-20T00:03:45.521Z,6.28
2019-04-20T00:06:17.745Z,6.97
2019-04-20T00:08:55.624Z,5.67
2019-04-20T00:11:29.571Z,6.92
2019-04-20T00:14:05.562Z,4.57
2019-04-20T00:16:33.701Z,5.92
2019-04-20T00:19:07.641Z,5.30
2019-04-20T00:21:46.936Z,4.90
2019-04-20T00:24:25.735Z,5.78
2019-04-20T00:27:15.274Z,8.65
2019-04-20T00:29:51.071Z,5.92
2019-04-20T00:32:14.653Z,4.95
2019-04-20T00:34:41.632Z,4.67
2019-04-20T00:37:12.884Z,7.03
2019-04-20T00:39:46.859Z,6.15
2019-04-20T00:42:23.447Z,5.78
2019-04-20T00:45:03.245Z,6.90
2019-04-20T00:47:37.323Z,9.67
2019-04-20T00:50:22.840Z,6.07
2019-04-20T00:52:51.765Z,4.22
2019-04-20T00:55:11.305Z,5.05
2019-04-20T00:57:50.043Z,5.75
2019-04-20T01:00:36.882Z,4.45
2019-04-20T01:03:09.827Z,4.42
2019-04-20T01:05:53.656Z,4.80
2019-04-20T01:08:06.465Z,6.35
2019-04-20T01:10:46.452Z,6.40
2019-04-20T01:13:18.691Z,6.72
2019-04-20T01:15:57.818Z,5.95
2019-04-20T01:18:24.678Z,5.10
2019-04-20T01:21:04.980Z,6.54
2019-04-20T01:23:40.422Z,5.50
2019-04-20T01:28:57.204Z,9.03
2019-04-20T01:34:05.653Z,12.98
2019-04-20T01:39:15.484Z,3.70
2019-04-20T01:41:39.345Z,6.87
2019-04-20T01:44:13.191Z,4.57
2019-04-20T01:46:51.925Z,5.08
2019-04-20T01:49:23.850Z,6.25
2019-04-20T01:52:04.926Z,9.20
2019-04-20T01:54:51.204Z,4.97
2019-04-20T01:57:26.139Z,6.90
2019-04-20T02:00:07.425Z,9.20
2019-04-20T02:02:43.626Z,4.87
2019-04-20T02:05:17.051Z,10.05
2019-04-20T02:07:49.358Z,7.17
2019-04-20T02:10:31.124Z,7.05
2019-04-20T02:12:59.608Z,6.70
2019-04-20T02:15:38.144Z,6.73
2019-04-20T02:18:17.584Z,5.92
2019-04-20T02:21:00.225Z,4.73
2019-04-20T02:23:25.159Z,6.40
2019-04-20T02:25:47.982Z,5.53
2019-04-20T02:28:38.551Z,7.92
2019-04-20T02:31:32.914Z,6.28
2019-04-20T02:34:26.143Z,5.53
2019-04-20T02:37:13.846Z,5.45
2019-04-20T02:42:19.738Z,4.37
2019-04-20T02:44:49.987Z,7.30
2019-04-20T02:47:25.752Z,7.20
2019-04-20T02:50:09.119Z,7.37
2019-04-20T02:52:42.522Z,7.80
2019-04-20T02:55:17.982Z,7.43
2019-04-20T02:57:40.415Z,11.28
2019-04-20T03:00:18.277Z,10.00
2019-04-20T03:02:27.246Z,12.18
2019-04-20T03:05:00.185Z,6.58
2019-04-20T03:07:34.126Z,7.72
2019-04-20T03:10:14.073Z,6.28
2019-04-20T03:12:53.701Z,7.27
2019-04-20T03:15:29.540Z,8.75
2019-04-20T03:18:05.962Z,7.60
2019-04-20T03:20:39.018Z,9.90
2019-04-20T03:28:28.017Z,7.28
2019-04-20T03:34:13.441Z,6.70
2019-04-20T03:36:29.180Z,9.83
2019-04-20T03:38:54.997Z,8.17
2019-04-20T03:41:18.414Z,6.87
2019-04-20T03:43:45.594Z,8.20
2019-04-20T03:46:25.768Z,6.42
2019-04-20T03:51:53.400Z,10.40
2019-04-20T03:55:26.580Z,9.35
2019-04-20T03:58:10.635Z,8.68
2019-04-20T04:00:50.376Z,7.08
2019-04-20T04:03:36.546Z,10.17
2019-04-20T04:06:11.750Z,7.60
2019-04-20T04:08:39.412Z,7.93
2019-04-20T04:11:26.187Z,8.40
2019-04-20T04:13:43.801Z,6.17
2019-04-20T04:16:18.934Z,10.63
2019-04-20T04:19:01.575Z,8.85
2019-04-20T04:21:40.850Z,9.10
2019-04-20T04:24:14.342Z,9.44
2019-04-20T04:26:47.490Z,10.90
2019-04-20T04:29:32.107Z,9.25
2019-04-20T04:32:16.772Z,8.93
2019-04-20T04:34:41.569Z,7.75
2019-04-20T04:37:19.052Z,8.48
2019-04-20T04:39:49.038Z,8.40
2019-04-20T04:42:25.135Z,11.05
2019-04-20T04:44:46.832Z,12.98
2019-04-20T04:47:13.370Z,11.22
2019-04-20T04:49:55.220Z,6.90
2019-04-20T04:52:29.381Z,10.72
2019-04-20T04:55:07.707Z,9.23
2019-04-20T05:00:22.748Z,12.60
2019-04-20T05:02:55.557Z,10.75
2019-04-20T05:17:15.304Z,10.98
2019-04-20T05:19:53.158Z,9.65
2019-04-20T05:22:32.182Z,7.65
2019-04-20T05:25:11.973Z,7.30
2019-04-20T05:27:49.071Z,11.52
2019-04-20T05:30:03.642Z,14.57
2019-04-20T05:32:47.484Z,7.43
2019-04-20T05:35:31.045Z,10.63
2019-04-20T05:40:42.670Z,11.22
2019-04-20T05:43:15.494Z,8.03
2019-04-20T05:48:23.279Z,7.85
2019-04-20T05:51:04.594Z,7.83
2019-04-20T05:53:38.535Z,10.10
2019-04-20T05:56:10.342Z,9.83
2019-04-20T05:58:54.752Z,9.13
2019-04-20T06:01:25.857Z,13.68
2019-04-20T06:03:55.460Z,11.48
2019-04-20T06:06:32.807Z,9.23
2019-04-20T06:09:10.874Z,8.20
2019-04-20T06:11:49.603Z,9.60
2019-04-20T06:14:08.053Z,12.05
2019-04-20T06:17:02.917Z,10.08
2019-04-20T06:19:48.920Z,9.78
2019-04-20T06:22:12.591Z,16.57
2019-04-20T06:25:01.373Z,9.38
2019-04-20T06:27:17.957Z,9.53
2019-04-20T06:29:52.496Z,8.28
2019-04-20T06:32:33.832Z,8.63
2019-04-20T06:35:10.151Z,9.27
2019-04-20T06:37:36.293Z,10.40
2019-04-20T06:40:29.569Z,8.30
2019-04-20T06:42:53.890Z,10.96
2019-04-20T06:45:28.189Z,9.70
2019-04-20T06:48:01.094Z,8.95
2019-04-20T06:50:32.932Z,10.85
2019-04-20T06:53:20.505Z,10.48
2019-04-20T06:55:54.747Z,10.80
2019-04-20T06:58:39.549Z,9.98
2019-04-20T07:01:01.301Z,9.35
2019-04-20T07:03:44.118Z,11.00
2019-04-20T07:06:23.892Z,13.80
2019-04-20T07:11:18.748Z,10.25
2019-04-20T07:13:41.223Z,10.90
2019-04-20T07:16:36.075Z,12.30
2019-04-20T07:19:18.622Z,8.43
2019-04-20T07:24:45.809Z,17.00
2019-04-20T07:29:52.324Z,9.25
2019-04-20T07:32:19.359Z,10.32
2019-04-20T07:34:56.760Z,16.52
2019-04-20T07:38:07.018Z,13.70
2019-04-20T07:40:11.724Z,8.40
2019-04-20T07:42:56.470Z,13.60
2019-04-20T07:45:24.147Z,9.28
2019-04-20T07:47:53.798Z,9.98
2019-04-20T07:50:21.832Z,12.63
2019-04-20T07:52:51.184Z,9.68
2019-04-20T07:58:07.337Z,8.88
2019-04-20T08:00:57.273Z,15.06
2019-04-20T08:03:50.171Z,8.10
2019-04-20T08:06:01.091Z,14.65
2019-04-20T08:08:40.705Z,8.33
2019-04-20T08:11:17.876Z,7.65
2019-04-20T08:13:51.360Z,11.55
2019-04-20T08:16:41.097Z,7.80
2019-04-20T08:18:59.782Z,12.07
2019-04-20T08:21:38.778Z,8.55
2019-04-20T08:24:07.629Z,11.20
2019-04-20T08:26:33.983Z,12.62
2019-04-20T08:29:19.751Z,7.70
2019-04-20T08:32:16.153Z,11.65
2019-04-20T08:34:55.861Z,9.75
2019-04-20T08:37:20.614Z,8.82
2019-04-20T08:40:04.054Z,7.90
2019-04-20T08:42:30.188Z,9.18
2019-04-20T08:45:07.150Z,12.82
2019-04-20T08:47:44.677Z,7.92
2019-04-20T08:53:12.762Z,9.15
2019-04-20T08:55:29.822Z,9.23
2019-04-20T08:57:45.039Z,9.58
2019-04-20T09:00:28.797Z,7.80
2019-04-20T09:02:59.081Z,8.60
2019-04-20T09:05:39.951Z,9.13
2019-04-20T09:08:13.537Z,10.80
2019-04-20T09:10:59.805Z,9.60
2019-04-20T09:13:26.997Z,10.18
2019-04-20T09:15:55.552Z,7.85
2019-04-20T09:18:38.892Z,8.18
2019-04-20T09:21:13.984Z,7.20
2019-04-20T09:24:10.554Z,8.80
2019-04-20T09:26:41.343Z,7.40
2019-04-20T09:29:11.121Z,7.42
2019-04-20T09:31:47.044Z,5.90
2019-04-20T09:34:24.961Z,6.50
2019-04-20T09:43:14.301Z,8.10
2019-04-20T10:08:04.364Z,8.18
2019-04-20T10:10:45.577Z,6.55
2019-04-20T10:16:31.479Z,6.42
2019-04-20T10:19:04.927Z,4.80
2019-04-20T10:21:39.305Z,10.70
2019-04-20T10:24:12.600Z,4.80
2019-04-20T10:26:45.438Z,11.20
2019-04-20T10:29:18.022Z,10.28
2019-04-20T10:31:55.725Z,7.53
2019-04-20T10:34:24.760Z,5.40
2019-04-20T10:36:57.588Z,6.22
2019-04-20T10:39:31.806Z,5.87
2019-04-20T10:42:05.895Z,5.33
2019-04-20T10:44:38.934Z,5.07
2019-04-20T10:47:11.785Z,4.53
2019-04-20T10:49:45.038Z,5.90
2019-04-20T10:52:17.870Z,3.20
2019-04-20T10:54:50.551Z,4.10
2019-04-20T10:57:25.667Z,5.67
2019-04-20T10:59:59.385Z,3.30
2019-04-20T11:05:38.372Z,4.00
2019-04-20T11:10:59.239Z,3.83
2019-04-20T11:13:21.578Z,6.03
2019-04-20T11:20:59.914Z,8.83
2019-04-20T11:23:32.354Z,4.94
2019-04-20T11:26:06.299Z,9.33
2019-04-20T11:28:40.011Z,5.42
2019-04-20T11:31:16.566Z,5.70
2019-04-20T11:33:49.995Z,6.55
2019-04-20T11:36:23.233Z,6.75
2019-04-20T11:38:56.698Z,5.55
2019-04-20T11:41:32.715Z,7.92
2019-04-20T11:44:05.551Z,7.10
2019-04-20T11:46:38.790Z,8.13
2019-04-20T11:49:11.420Z,6.33
2019-04-20T11:51:45.700Z,7.30
2019-04-20T11:56:51.427Z,4.62
2019-04-20T11:59:25.277Z,6.78
2019-04-20T12:02:02.484Z,5.40
2019-04-20T12:04:42.244Z,5.95
2019-04-20T12:07:09.292Z,2.67
2019-04-20T12:09:42.133Z,3.98
2019-04-20T12:12:27.711Z,7.37
2019-04-20T12:14:50.704Z,2.13
2019-04-20T12:19:57.689Z,3.08
2019-04-20T12:22:32.407Z,3.27
2019-04-20T12:27:41.943Z,3.12
2019-04-20T12:30:19.632Z,5.33
2019-04-20T12:35:27.480Z,1.50
2019-04-20T12:40:35.367Z,2.70
2019-04-20T12:43:08.985Z,7.28
2019-04-20T12:45:42.126Z,5.22
2019-04-20T12:48:15.777Z,2.67
2019-04-20T12:50:49.799Z,3.00
2019-04-20T12:53:24.564Z,4.10
2019-04-20T12:55:57.343Z,3.02
2019-04-20T12:58:30.589Z,1.85
2019-04-20T13:01:04.515Z,1.92
2019-04-20T13:03:39.234Z,1.40
2019-04-20T13:06:12.179Z,2.90
2019-04-20T13:08:51.853Z,2.10
2019-04-20T13:11:24.757Z,4.22
2019-04-20T13:14:26.319Z,6.60
2019-04-20T13:16:59.433Z,7.47
2019-04-20T13:19:33.290Z,3.60
2019-04-20T13:22:07.736Z,1.87
2019-04-20T13:24:41.019Z,7.62
2019-04-20T13:27:14.372Z,2.50
2019-04-20T13:29:50.512Z,8.93
2019-04-20T13:32:21.591Z,1.93
2019-04-20T13:34:54.314Z,5.75
2019-04-20T13:37:26.758Z,2.00
2019-04-20T13:40:00.758Z,2.42
2019-04-20T13:42:35.178Z,3.20
2019-04-20T13:45:10.764Z,3.07
2019-04-20T13:47:43.549Z,2.77
2019-04-20T13:50:20.406Z,1.92
2019-04-20T13:52:53.356Z,3.42
2019-04-20T13:55:27.318Z,3.15
2019-04-20T13:58:04.877Z,6.25
2019-04-20T14:00:58.967Z,3.87
2019-04-20T14:03:34.585Z,5.73
2019-04-20T14:06:08.878Z,3.22
2019-04-20T14:08:43.318Z,2.33
2019-04-20T14:11:15.728Z,3.50
2019-04-20T14:13:54.613Z,2.65
2019-04-20T14:16:23.191Z,5.60
2019-04-20T14:21:27.964Z,3.10
2019-04-20T14:26:36.177Z,2.37
2019-04-20T14:29:09.031Z,4.50
2019-04-20T14:34:18.671Z,2.95
2019-04-20T14:44:29.931Z,4.66
2019-04-20T14:47:03.653Z,2.98
2019-04-20T14:49:36.805Z,4.13
2019-04-20T14:52:09.401Z,4.60
2019-04-20T14:54:41.831Z,1.72
2019-04-20T14:57:14.313Z,3.87
2019-04-20T14:59:57.647Z,5.37
2019-04-20T15:02:32.120Z,3.98
2019-04-20T15:05:07.319Z,4.30
2019-04-20T15:07:40.745Z,3.08
2019-04-20T15:10:14.893Z,2.27
2019-04-20T15:12:54.619Z,3.62
2019-04-20T15:15:22.910Z,3.80
2019-04-20T15:17:57.589Z,4.17
2019-04-20T15:20:32.925Z,3.42
2019-04-20T15:23:07.680Z,2.55
2019-04-20T15:25:40.298Z,4.28
2019-04-20T15:28:12.599Z,4.70
2019-04-20T15:30:45.291Z,8.30
2019-04-20T15:33:18.963Z,2.85
2019-04-20T15:35:52.484Z,4.40
2019-04-20T15:38:25.049Z,3.20
2019-04-20T15:40:59.485Z,6.20
2019-04-20T15:43:33.164Z,5.70
2019-04-20T15:46:05.725Z,3.98
2019-04-20T15:48:39.754Z,3.50
2019-04-20T15:51:12.346Z,6.70
2019-04-20T15:53:44.719Z,3.97
2019-04-20T15:56:18.540Z,7.17
2019-04-20T15:58:52.523Z,2.50
2019-04-20T16:01:28.319Z,3.12
2019-04-20T16:04:03.647Z,3.20
2019-04-20T16:06:37.412Z,4.25
2019-04-20T16:09:12.305Z,4.37
2019-04-20T16:11:46.689Z,6.10
2019-04-20T16:14:19.664Z,2.90
2019-04-20T16:16:52.735Z,3.87
2019-04-20T16:19:34.955Z,6.70
2019-04-20T16:24:37.866Z,2.47
2019-04-20T16:27:18.283Z,2.83
2019-04-20T16:31:48.164Z,6.40
2019-04-20T16:34:21.260Z,8.30
2019-04-20T16:39:28.314Z,5.85
2019-04-20T16:42:02.381Z,7.90
2019-04-20T16:47:08.291Z,4.80
2019-04-20T16:49:41.132Z,5.22
2019-04-20T16:52:14.919Z,3.30
2019-04-20T16:54:47.957Z,7.63
2019-04-20T16:57:21.465Z,7.25
2019-04-20T16:59:56.454Z,6.35
2019-04-20T17:02:28.428Z,4.03
2019-04-20T17:05:01.337Z,3.83
2019-04-20T17:07:40.140Z,6.37
2019-04-20T17:10:16.155Z,7.83
2019-04-20T17:12:48.718Z,5.85
2019-04-20T17:15:21.590Z,3.98
2019-04-20T17:17:56.714Z,5.80
2019-04-20T17:20:28.876Z,5.55
2019-04-20T17:23:03.818Z,4.35
2019-04-20T17:28:25.072Z,5.37
2019-04-20T17:33:58.660Z,7.00
2019-04-20T17:36:28.923Z,6.17
2019-04-20T17:39:02.240Z,4.47
2019-04-20T17:41:59.453Z,5.25
2019-04-20T17:44:28.590Z,6.03
2019-04-20T17:46:58.249Z,5.70
2019-04-20T17:49:31.417Z,2.98
2019-04-20T17:52:22.141Z,6.65
2019-04-20T17:54:33.490Z,4.00
2019-04-20T17:57:09.088Z,4.20
2019-04-20T17:59:44.886Z,3.67
2019-04-20T18:02:40.835Z,9.28
2019-04-20T18:05:39.504Z,4.10
2019-04-20T18:08:16.515Z,7.55
2019-04-20T18:10:41.859Z,6.22
2019-04-20T18:13:11.552Z,4.85
2019-04-20T18:15:52.643Z,5.40
2019-04-20T18:18:38.969Z,11.63
2019-04-20T18:21:03.452Z,6.17
2019-04-20T18:23:41.224Z,8.55
2019-04-20T18:26:31.785Z,10.15
2019-04-20T18:29:10.774Z,11.93
2019-04-20T18:31:33.842Z,7.57
2019-04-20T18:37:34.308Z,9.24
2019-04-20T18:54:41.990Z,10.98
2019-04-20T18:57:17.972Z,8.58
2019-04-20T18:59:52.112Z,13.37
2019-04-20T19:02:26.960Z,10.32
2019-04-20T19:04:58.297Z,12.70
2019-04-20T19:07:34.846Z,12.98
2019-04-20T19:10:14.509Z,15.85
2019-04-20T19:12:56.716Z,12.33
2019-04-20T19:15:51.113Z,10.85
2019-04-20T19:18:26.005Z,9.30
2019-04-20T19:20:50.639Z,9.58
2019-04-20T19:23:25.027Z,9.85
2019-04-20T19:26:04.404Z,11.45
2019-04-20T19:28:40.140Z,12.92
2019-04-20T19:31:27.877Z,10.00
2019-04-20T19:36:28.658Z,14.20
2019-04-20T19:39:11.033Z,11.90
2019-04-20T19:43:28.297Z,11.50
2019-04-20T19:46:34.919Z,12.50
2019-04-20T19:48:39.587Z,7.87
2019-04-20T19:54:02.727Z,13.85
2019-04-20T19:56:33.786Z,12.63
2019-04-20T19:59:05.141Z,10.40
2019-04-20T20:05:50.903Z,7.83
2019-04-20T20:08:25.958Z,9.83
2019-04-20T20:12:55.314Z,18.23
2019-04-20T20:15:29.655Z,13.03
2019-04-20T20:18:15.598Z,15.05
2019-04-20T20:20:52.842Z,12.03
2019-04-20T20:23:10.056Z,14.00
2019-04-20T20:25:46.441Z,15.25
2019-04-20T20:28:27.101Z,10.08
2019-04-20T20:31:05.063Z,6.87
2019-04-20T20:33:44.010Z,15.83
2019-04-20T20:36:05.559Z,10.15
2019-04-20T20:38:39.794Z,11.55
2019-04-20T20:41:22.946Z,9.55
2019-04-20T20:43:56.521Z,11.37
2019-04-20T20:46:30.647Z,10.07
2019-04-20T20:49:09.566Z,13.60
2019-04-20T20:51:48.758Z,9.78
2019-04-20T20:54:24.325Z,10.23
2019-04-20T20:56:49.934Z,14.98
2019-04-20T20:59:30.275Z,14.87
2019-04-20T21:02:00.962Z,12.93
2019-04-20T21:04:27.827Z,14.43
2019-04-20T21:07:02.565Z,18.32
2019-04-20T21:09:35.532Z,12.40
2019-04-20T21:12:14.061Z,13.60
2019-04-20T21:14:44.246Z,14.23
2019-04-20T21:17:21.104Z,13.00
2019-04-20T21:20:08.496Z,9.70
2019-04-20T21:22:44.631Z,13.68
2019-04-20T21:25:01.643Z,12.30
2019-04-20T21:27:37.314Z,13.00
2019-04-20T21:30:17.123Z,10.35
2019-04-20T21:32:49.129Z,9.17
2019-04-20T21:35:21.851Z,11.22
2019-04-20T21:40:36.151Z,14.20
2019-04-20T21:43:07.480Z,9.38
2019-04-20T21:45:47.895Z,11.40
2019-04-20T21:48:35.072Z,9.08
2019-04-20T21:51:08.620Z,7.97
2019-04-20T21:53:29.568Z,8.90
2019-04-20T21:55:57.651Z,10.63
2019-04-20T21:58:35.271Z,9.80
2019-04-20T22:01:16.374Z,10.58
2019-04-20T22:03:44.756Z,8.90
2019-04-20T22:06:18.332Z,7.15
2019-04-20T22:08:57.076Z,8.73
2019-04-20T22:11:25.928Z,9.78
2019-04-20T22:14:02.202Z,9.45
2019-04-20T22:16:40.975Z,16.05
2019-04-20T22:19:23.933Z,13.96
2019-04-20T22:21:58.762Z,8.40
2019-04-20T22:24:40.259Z,8.55
2019-04-20T22:27:06.345Z,7.87
2019-04-20T22:29:30.187Z,13.90
2019-04-20T22:32:11.548Z,8.20
2019-04-20T22:34:39.775Z,7.64
2019-04-20T22:37:15.210Z,18.27
2019-04-20T22:39:54.091Z,12.78
2019-04-20T22:42:23.585Z,10.20
2019-04-20T22:45:01.932Z,8.03
2019-04-20T22:47:36.083Z,11.22
2019-04-20T22:50:25.467Z,9.84
2019-04-20T22:52:55.667Z,10.47
2019-04-20T22:55:45.559Z,15.13
2019-04-20T22:58:03.266Z,11.63
2019-04-20T23:00:40.710Z,11.12
2019-04-20T23:03:05.460Z,9.60
2019-04-20T23:05:38.637Z,8.98
2019-04-20T23:08:12.820Z,11.20
2019-04-20T23:10:47.997Z,10.40
2019-04-20T23:14:04.897Z,11.25
2019-04-20T23:16:42.946Z,8.98
2019-04-20T23:19:12.041Z,9.65
2019-04-20T23:21:52.353Z,9.40
2019-04-20T23:24:23.601Z,8.53
2019-04-20T23:26:57.358Z,11.45
2019-04-20T23:29:35.707Z,10.70
2019-04-20T23:32:09.527Z,8.42
2019-04-20T23:37:20.533Z,12.25
2019-04-20T23:39:50.944Z,8.00
2019-04-20T23:42:28.033Z,9.95
2019-04-20T23:45:03.750Z,10.70
2019-04-20T23:47:45.700Z,10.00
2019-04-20T23:50:35.462Z,8.03
2019-04-20T23:53:10.170Z,11.73
2019-04-20T23:55:23.749Z,11.13
2019-04-20T23:58:01.723Z,10.48
